Bandirma, Turkey
Current Conditions -  °F | °C
As of 8:50 AM on Monday 22 Dec 2014 (Local Time) from LTBF Reporting Station
Scattered Clouds Scattered Clouds  
Wind Chill: 34°   Ceiling: Unl
Heat Index: 37°   Visibility: 6mi
Dew Point: 30°   Wind: 5mph
Humidity: 75%   Direction: 330°NNW
Pressure: 30.39"   Gusts: NA
Location:  40.37°N, 27.98°E
Report Text: LTBF 220550Z 33004KT 9999 SCT035 03/M01 Q1029 NOSIG
Loading
Personal Weather Stations






























Interactive Weather Map New forecast layout! Learn more

10-Day Weather Forecast

Advertisements
Track Severe Weather on mobile